Map

Track Data

SID SEASON NUMBER BASIN SUBBASIN NAME ISO_TIME NATURE LAT LON WMO_WIND WMO_PRES WMO_AGENCY TRACK_TYPE DIST2LAND LANDFALL IFLAG USA_AGENCY USA_ATCF_ID USA_LAT USA_LON USA_RECORD USA_STATUS USA_WIND USA_PRES USA_SSHS USA_R34_NE USA_R34_SE USA_R34_SW USA_R34_NW USA_R50_NE USA_R50_SE USA_R50_SW USA_R50_NW USA_R64_NE USA_R64_SE USA_R64_SW USA_R64_NW USA_POCI USA_ROCI USA_RMW USA_EYE TOKYO_LAT TOKYO_LON TOKYO_GRADE TOKYO_WIND TOKYO_PRES TOKYO_R50_DIR TOKYO_R50_LONG TOKYO_R50_SHORT TOKYO_R30_DIR TOKYO_R30_LONG TOKYO_R30_SHORT TOKYO_LAND CMA_LAT CMA_LON CMA_CAT CMA_WIND CMA_PRES HKO_LAT HKO_LON HKO_CAT HKO_WIND HKO_PRES NEWDELHI_LAT NEWDELHI_LON NEWDELHI_GRADE NEWDELHI_WIND NEWDELHI_PRES NEWDELHI_CI NEWDELHI_DP NEWDELHI_POCI REUNION_LAT REUNION_LON REUNION_TYPE REUNION_WIND REUNION_PRES REUNION_TNUM REUNION_CI REUNION_RMW REUNION_R34_NE REUNION_R34_SE REUNION_R34_SW REUNION_R34_NW REUNION_R50_NE REUNION_R50_SE REUNION_R50_SW REUNION_R50_NW REUNION_R64_NE REUNION_R64_SE REUNION_R64_SW REUNION_R64_NW BOM_LAT BOM_LON BOM_TYPE BOM_WIND BOM_PRES BOM_TNUM BOM_CI BOM_RMW BOM_R34_NE BOM_R34_SE BOM_R34_SW BOM_R34_NW BOM_R50_NE BOM_R50_SE BOM_R50_SW BOM_R50_NW BOM_R64_NE BOM_R64_SE BOM_R64_SW BOM_R64_NW BOM_ROCI BOM_POCI BOM_EYE BOM_POS_METHOD BOM_PRES_METHOD NADI_LAT NADI_LON NADI_CAT NADI_WIND NADI_PRES WELLINGTON_LAT WELLINGTON_LON WELLINGTON_WIND WELLINGTON_PRES DS824_LAT DS824_LON DS824_STAGE DS824_WIND DS824_PRES TD9636_LAT TD9636_LON TD9636_STAGE TD9636_WIND TD9636_PRES TD9635_LAT TD9635_LON TD9635_WIND TD9635_PRES TD9635_ROCI NEUMANN_LAT NEUMANN_LON NEUMANN_CLASS NEUMANN_WIND NEUMANN_PRES MLC_LAT MLC_LON MLC_CLASS MLC_WIND MLC_PRES USA_GUST BOM_GUST BOM_GUST_PER REUNION_GUST REUNION_GUST_PER USA_SEAHGT USA_SEARAD_NE USA_SEARAD_SE USA_SEARAD_SW USA_SEARAD_NW STORM_SPEED STORM_DIR
1909166N11278 1909 28 NA CS NOT_NAMED 1909-06-15 00:00:00 TS 10.6000 -82.5000 30 hurdat_atl main 86 86 O_____________ hurdat_atl AL011909 10.6000 -82.5000 TD 30 -1 2 0
1909166N11278 1909 28 NA CS NOT_NAMED 1909-06-15 03:00:00 TS 10.7000 -82.5000 main 95 95 P_____________ AL011909 10.7000 -82.5000 TD 30 -1 2 8
1909166N11278 1909 28 NA CS NOT_NAMED 1909-06-15 06:00:00 TS 10.8000 -82.5000 30 hurdat_atl main 104 104 O_____________ hurdat_atl AL011909 10.8000 -82.5000 TD 30 -1 2 8
1909166N11278 1909 28 NA CS NOT_NAMED 1909-06-15 09:00:00 TS 10.9000 -82.5000 main 113 113 P_____________ AL011909 10.9000 -82.5000 TD 32 -1 2 8
1909166N11278 1909 28 NA CS NOT_NAMED 1909-06-15 12:00:00 TS 11.0000 -82.5000 35 hurdat_atl main 119 119 O_____________ hurdat_atl AL011909 11.0000 -82.5000 TS 35 0 2 7
1909166N11278 1909 28 NA CS NOT_NAMED 1909-06-15 15:00:00 TS 11.0925 -82.5000 main 124 124 P_____________ AL011909 11.0925 -82.5000 TS 35 0 2 8
1909166N11278 1909 28 NA CS NOT_NAMED 1909-06-15 18:00:00 TS 11.2000 -82.5000 35 hurdat_atl main 128 124 O_____________ hurdat_atl AL011909 11.2000 -82.5000 TS 35 0 3 0
1909166N11278 1909 28 NA CS NOT_NAMED 1909-06-15 21:00:00 TS 11.3500 -82.5000 main 122 120 P_____________ AL011909 11.3500 -82.5000 TS 37 0 3 0
1909166N11278 1909 28 NA CS NOT_NAMED 1909-06-16 00:00:00 TS 11.5000 -82.5000 40 hurdat_atl main 120 119 O_____________ hurdat_atl AL011909 11.5000 -82.5000 TS 40 0 3 2
1909166N11278 1909 28 NA CS NOT_NAMED 1909-06-16 03:00:00 TS 11.6000 -82.5000 main 119 119 P_____________ AL011909 11.6000 -82.5000 TS 40 0 2 8
1909166N11278 1909 28 NA CS NOT_NAMED 1909-06-16 06:00:00 TS 11.7000 -82.5000 40 hurdat_atl main 120 120 O_____________ hurdat_atl AL011909 11.7000 -82.5000 TS 40 0 3 2
1909166N11278 1909 28 NA CS NOT_NAMED 1909-06-16 09:00:00 TS 11.8500 -82.5000 main 122 117 P_____________ AL011909 11.8500 -82.5000 TS 40 0 3 0
1909166N11278 1909 28 NA CS NOT_NAMED 1909-06-16 12:00:00 TS 12.0000 -82.5000 40 hurdat_atl main 117 113 O_____________ hurdat_atl AL011909 12.0000 -82.5000 TS 40 0 3 0
1909166N11278 1909 28 NA CS NOT_NAMED 1909-06-16 15:00:00 TS 12.1075 -82.5000 main 113 110 P_____________ AL011909 12.1075 -82.5000 TS 40 0 2 8
1909166N11278 1909 28 NA CS NOT_NAMED 1909-06-16 18:00:00 TS 12.2000 -82.5000 40 hurdat_atl main 110 109 O_____________ hurdat_atl AL011909 12.2000 -82.5000 TS 40 0 2 7
1909166N11278 1909 28 NA CS NOT_NAMED 1909-06-16 21:00:00 TS 12.3000 -82.5000 main 109 108 P_____________ AL011909 12.3000 -82.5000 TS 40 0 2 8
1909166N11278 1909 28 NA CS NOT_NAMED 1909-06-17 00:00:00 TS 12.4000 -82.5000 40 hurdat_atl main 108 108 O_____________ hurdat_atl AL011909 12.4000 -82.5000 TS 40 0 2 8
1909166N11278 1909 28 NA CS NOT_NAMED 1909-06-17 03:00:00 TS 12.5000 -82.5000 main 108 108 P_____________ AL011909 12.5000 -82.5000 TS 40 0 2 8
1909166N11278 1909 28 NA CS NOT_NAMED 1909-06-17 06:00:00 TS 12.6000 -82.5000 40 hurdat_atl main 108 108 O_____________ hurdat_atl AL011909 12.6000 -82.5000 TS 40 0 2 8
1909166N11278 1909 28 NA CS NOT_NAMED 1909-06-17 09:00:00 TS 12.7000 -82.5000 main 108 108 P_____________ AL011909 12.7000 -82.5000 TS 40 0 2 8
1909166N11278 1909 28 NA CS NOT_NAMED 1909-06-17 12:00:00 TS 12.8000 -82.5000 40 hurdat_atl main 108 108 O_____________ hurdat_atl AL011909 12.8000 -82.5000 TS 40 0 2 8
1909166N11278 1909 28 NA CS NOT_NAMED 1909-06-17 15:00:00 TS 12.9000 -82.4925 main 108 108 P_____________ AL011909 12.9000 -82.4925 TS 40 0 2 8
1909166N11278 1909 28 NA CS NOT_NAMED 1909-06-17 18:00:00 TS 13.0000 -82.5000 40 hurdat_atl main 108 108 O_____________ hurdat_atl AL011909 13.0000 -82.5000 TS 40 0 2 343
1909166N11278 1909 28 NA CS NOT_NAMED 1909-06-17 21:00:00 TS 13.1000 -82.5425 main 108 97 P_____________ AL011909 13.1000 -82.5425 TS 40 0 2 333
1909166N11278 1909 28 NA CS NOT_NAMED 1909-06-18 00:00:00 TS 13.2000 -82.6000 40 hurdat_atl main 97 97 O_____________ hurdat_atl AL011909 13.2000 -82.6000 TS 40 0 2 332
1909166N11278 1909 28 NA CS NOT_NAMED 1909-06-18 03:00:00 TS 13.3075 -82.6500 main 97 86 P_____________ AL011909 13.3075 -82.6500 TS 40 0 2 333
1909166N11278 1909 28 NA CS NOT_NAMED 1909-06-18 06:00:00 TS 13.4000 -82.7000 40 hurdat_atl main 86 86 O_____________ hurdat_atl AL011909 13.4000 -82.7000 TS 40 0 2 328
1909166N11278 1909 28 NA CS NOT_NAMED 1909-06-18 09:00:00 TS 13.4500 -82.7425 main 86 75 P_____________ AL011909 13.4500 -82.7425 TS 40 0 1 317
1909166N11278 1909 28 NA CS NOT_NAMED 1909-06-18 12:00:00 TS 13.5000 -82.8000 40 hurdat_atl main 75 64 O_____________ hurdat_atl AL011909 13.5000 -82.8000 TS 40 0 2 318
1909166N11278 1909 28 NA CS NOT_NAMED 1909-06-18 15:00:00 TS 13.6000 -82.8850 main 64 54 P_____________ AL011909 13.6000 -82.8850 TS 40 0 3 316
1909166N11278 1909 28 NA CS NOT_NAMED 1909-06-18 18:00:00 TS 13.7000 -83.0000 40 hurdat_atl main 54 39 O_____________ hurdat_atl AL011909 13.7000 -83.0000 TS 40 0 3 302
1909166N11278 1909 28 NA CS NOT_NAMED 1909-06-18 21:00:00 TS 13.7575 -83.1425 main 39 21 P_____________ AL011909 13.7575 -83.1425 TS 40 0 3 289
1909166N11278 1909 28 NA CS NOT_NAMED 1909-06-19 00:00:00 TS 13.8000 -83.3000 40 hurdat_atl main 21 10 O_____________ hurdat_atl AL011909 13.8000 -83.3000 TS 40 0 3 288
1909166N11278 1909 28 NA CS NOT_NAMED 1909-06-19 03:00:00 TS 13.8500 -83.4425 main 10 0 P_____________ AL011909 13.8500 -83.4425 TS 37 0 3 289
1909166N11278 1909 28 NA NA NOT_NAMED 1909-06-19 06:00:00 TS 13.9000 -83.6000 35 hurdat_atl main 0 0 O_____________ hurdat_atl AL011909 13.9000 -83.6000 TS 35 0 4 288
1909166N11278 1909 28 NA NA NOT_NAMED 1909-06-19 09:00:00 TS 13.9575 -83.7850 main 0 0 P_____________ AL011909 13.9575 -83.7850 TS 32 -1 4 284
1909166N11278 1909 28 NA NA NOT_NAMED 1909-06-19 12:00:00 TS 14.0000 -84.0000 30 hurdat_atl main 0 0 O_____________ hurdat_atl AL011909 14.0000 -84.0000 TD 30 -1 4 277
1909166N11278 1909 28 NA NA NOT_NAMED 1909-06-19 15:00:00 TS 14.0101 -84.2425 main 0 0 P_____________ AL011909 14.0101 -84.2425 TD 27 -1 5 270
1909166N11278 1909 28 NA NA NOT_NAMED 1909-06-19 18:00:00 TS 14.0000 -84.5000 25 hurdat_atl main 0 O_____________ hurdat_atl AL011909 14.0000 -84.5000 TD 25 -1 5 268

About IBTrACS Database

This database is a web-friendly format of International Best Track Archive for Climate Stewardship (IBTrACS), a global best track data archive curated by NOAA dating back to 1842.

Updated: 2021-11-26